Terminal Aerodrome Forecast
Issued by NWS Brownsville, TX

Home | Current Version | Previous Version | Text Only | Print | Product List | Glossary On
Versions: 1 2 3 4 5 6 7 8 9 10 11 12 13 14
069
FTUS44 KBRO 131720
TAFBRO
TAF
KBRO 131720Z 1318/1418 00000KT P6SM SKC
     FM132000 15005KT P6SM SCT250
     FM140600 20005KT P6SM SCT050 BKN250
     FM141500 20007KT P6SM OVC050=

USA.gov is the U.S. government's official web portal to all federal, state and local government web resources and services.